createdAt,value
2019-05-17T00:02:17.916Z,35.30
2019-05-17T00:04:47.263Z,34.27
2019-05-17T00:07:16.835Z,33.53
2019-05-17T00:09:47.890Z,27.13
2019-05-17T00:12:17.500Z,28.17
2019-05-17T00:14:47.250Z,27.15
2019-05-17T00:17:17.315Z,29.25
2019-05-17T00:19:47.925Z,27.30
2019-05-17T00:22:17.439Z,30.60
2019-05-17T00:24:47.717Z,27.85
2019-05-17T00:27:17.432Z,30.97
2019-05-17T00:29:46.822Z,31.40
2019-05-17T00:32:17.340Z,27.48
2019-05-17T00:34:47.766Z,27.58
2019-05-17T00:37:18.126Z,26.23
2019-05-17T00:39:47.524Z,29.75
2019-05-17T00:42:17.204Z,30.82
2019-05-17T00:44:47.394Z,26.85
2019-05-17T00:47:17.247Z,25.65
2019-05-17T00:49:46.754Z,26.90
2019-05-17T00:52:16.663Z,28.60
2019-05-17T00:54:46.952Z,28.45
2019-05-17T00:57:16.719Z,26.45
2019-05-17T00:59:47.594Z,27.60
2019-05-17T01:02:17.223Z,25.97
2019-05-17T01:04:47.579Z,25.48
2019-05-17T01:07:18.134Z,24.15
2019-05-17T01:09:47.491Z,23.80
2019-05-17T01:12:16.844Z,24.55
2019-05-17T01:14:46.599Z,25.95
2019-05-17T01:17:16.538Z,23.35
2019-05-17T01:19:47.158Z,24.15
2019-05-17T01:22:16.979Z,23.30
2019-05-17T01:24:46.497Z,25.05
2019-05-17T01:27:17.340Z,25.65
2019-05-17T01:29:46.804Z,28.42
2019-05-17T01:32:17.250Z,31.62
2019-05-17T01:34:46.981Z,33.60
2019-05-17T01:37:17.224Z,30.97
2019-05-17T01:39:46.887Z,36.40
2019-05-17T01:42:17.183Z,33.83
2019-05-17T01:44:47.268Z,37.38
2019-05-17T01:47:16.789Z,38.83
2019-05-17T01:49:47.323Z,29.52
2019-05-17T01:52:16.942Z,30.97
2019-05-17T01:54:46.930Z,33.88
2019-05-17T01:57:16.981Z,37.93
2019-05-17T01:59:46.778Z,30.60
2019-05-17T02:02:18.005Z,34.30
2019-05-17T02:04:47.393Z,39.88
2019-05-17T02:07:17.276Z,43.05
2019-05-17T02:09:47.837Z,40.20
2019-05-17T02:12:18.328Z,41.53
2019-05-17T02:14:47.836Z,57.80
2019-05-17T02:17:17.506Z,39.58
2019-05-17T02:19:46.902Z,40.48
2019-05-17T02:22:16.713Z,42.85
2019-05-17T02:24:46.509Z,34.33
2019-05-17T02:27:16.050Z,36.08
2019-05-17T02:29:45.416Z,35.92
2019-05-17T02:32:15.080Z,38.50
2019-05-17T02:34:44.412Z,32.25
2019-05-17T02:37:13.793Z,35.38
2019-05-17T02:39:56.515Z,37.73
2019-05-17T02:42:14.227Z,38.35
2019-05-17T02:44:43.895Z,37.73
2019-05-17T02:47:13.463Z,45.10
2019-05-17T02:49:43.941Z,44.77
2019-05-17T02:52:13.283Z,39.70
2019-05-17T02:54:43.708Z,42.62
2019-05-17T02:57:14.406Z,33.10
2019-05-17T02:59:43.996Z,37.33
2019-05-17T03:02:13.396Z,36.35
2019-05-17T03:04:43.473Z,40.05
2019-05-17T03:07:25.711Z,36.20
2019-05-17T03:10:11.736Z,39.90
2019-05-17T03:12:26.165Z,30.73
2019-05-17T03:14:55.571Z,34.30
2019-05-17T03:17:24.896Z,32.80
2019-05-17T03:19:54.306Z,38.23
2019-05-17T03:22:23.631Z,41.80
2019-05-17T03:24:53.462Z,45.75
2019-05-17T03:27:23.935Z,43.50
2019-05-17T03:29:53.841Z,45.67
2019-05-17T03:32:26.668Z,37.60
2019-05-17T03:34:56.779Z,40.33
2019-05-17T03:37:32.567Z,42.48
2019-05-17T03:39:57.314Z,41.58
2019-05-17T03:42:26.714Z,36.38
2019-05-17T03:44:56.088Z,41.77
2019-05-17T03:47:25.692Z,41.73
2019-05-17T03:49:56.116Z,45.98
2019-05-17T03:52:25.606Z,50.50
2019-05-17T03:54:54.971Z,45.43
2019-05-17T03:57:24.378Z,36.17
2019-05-17T03:59:53.802Z,41.58
2019-05-17T04:02:23.316Z,41.18
2019-05-17T04:04:53.117Z,38.58
2019-05-17T04:07:23.588Z,37.95
2019-05-17T04:09:53.506Z,39.40
2019-05-17T04:12:23.394Z,42.05
2019-05-17T04:14:53.501Z,38.80
2019-05-17T04:17:23.078Z,37.00
2019-05-17T04:19:53.460Z,33.90
2019-05-17T04:22:23.856Z,32.25
2019-05-17T04:24:53.522Z,37.58
2019-05-17T04:27:23.149Z,35.20
2019-05-17T04:29:53.283Z,41.42
2019-05-17T04:32:23.485Z,46.73
2019-05-17T04:34:53.060Z,42.70
2019-05-17T04:37:23.499Z,37.53
2019-05-17T04:39:52.905Z,36.90
2019-05-17T04:42:22.861Z,36.28
2019-05-17T04:44:52.866Z,36.17
2019-05-17T04:47:23.121Z,35.35
2019-05-17T04:49:53.947Z,35.33
2019-05-17T04:52:23.472Z,32.42
2019-05-17T04:54:53.719Z,30.97
2019-05-17T04:57:23.511Z,28.80
2019-05-17T04:59:52.868Z,35.70
2019-05-17T05:02:23.634Z,34.20
2019-05-17T05:04:53.450Z,35.63
2019-05-17T05:07:23.020Z,31.70
2019-05-17T05:09:53.417Z,31.45
2019-05-17T05:12:24.098Z,29.63
2019-05-17T05:14:53.643Z,27.32
2019-05-17T05:17:23.077Z,25.17
2019-05-17T05:19:53.003Z,20.05
2019-05-17T05:22:22.728Z,19.80
2019-05-17T05:24:52.456Z,19.98
2019-05-17T05:27:22.327Z,20.37
2019-05-17T05:29:52.171Z,20.88
2019-05-17T05:32:22.037Z,21.57
2019-05-17T05:34:51.983Z,18.87
2019-05-17T05:37:23.191Z,18.92
2019-05-17T05:39:54.618Z,20.83
2019-05-17T05:42:23.789Z,23.20
2019-05-17T05:44:55.411Z,22.00
2019-05-17T05:47:24.179Z,24.20
2019-05-17T05:49:53.582Z,22.60
2019-05-17T05:52:22.924Z,20.48
2019-05-17T05:54:52.258Z,18.82
2019-05-17T05:57:21.971Z,20.82
2019-05-17T05:59:51.803Z,20.77
2019-05-17T06:02:21.856Z,19.20
2019-05-17T06:04:51.807Z,21.85
2019-05-17T06:07:21.748Z,20.90
2019-05-17T06:09:51.847Z,21.97
2019-05-17T06:12:27.704Z,22.22
2019-05-17T06:14:52.506Z,20.27
2019-05-17T06:17:21.902Z,22.45
2019-05-17T06:19:51.806Z,23.20
2019-05-17T06:22:22.494Z,19.97
2019-05-17T06:24:52.142Z,19.57
2019-05-17T06:27:21.707Z,20.92
2019-05-17T06:29:51.478Z,20.90
2019-05-17T06:32:22.753Z,20.90
2019-05-17T06:34:52.136Z,20.53
2019-05-17T06:37:22.355Z,20.88
2019-05-17T06:39:52.800Z,21.17
2019-05-17T06:42:37.075Z,19.07
2019-05-17T06:44:53.184Z,20.00
2019-05-17T06:47:22.649Z,20.62
2019-05-17T06:49:53.521Z,19.45
2019-05-17T06:52:23.151Z,19.53
2019-05-17T06:54:52.623Z,20.35
2019-05-17T06:57:23.265Z,22.25
2019-05-17T06:59:52.842Z,23.42
2019-05-17T07:02:22.288Z,23.67
2019-05-17T07:04:53.327Z,22.80
2019-05-17T07:07:30.445Z,24.07
2019-05-17T07:10:00.903Z,20.48
2019-05-17T07:12:30.799Z,22.42
2019-05-17T07:15:01.649Z,20.88
2019-05-17T07:17:31.512Z,20.90
2019-05-17T07:20:00.947Z,22.15
2019-05-17T07:22:30.312Z,18.67
2019-05-17T07:24:59.881Z,22.02
2019-05-17T07:27:38.729Z,20.48
2019-05-17T07:30:00.510Z,18.00
2019-05-17T07:32:29.979Z,16.87
2019-05-17T07:35:00.009Z,14.98
2019-05-17T07:37:30.346Z,18.02
2019-05-17T07:40:04.887Z,19.12
2019-05-17T07:42:31.869Z,16.30
2019-05-17T07:45:01.244Z,17.67
2019-05-17T07:47:30.575Z,17.42
2019-05-17T07:50:01.066Z,16.65
2019-05-17T07:52:31.785Z,14.95
2019-05-17T07:55:02.679Z,12.98
2019-05-17T07:57:32.378Z,12.45
2019-05-17T08:00:01.780Z,13.00
2019-05-17T08:02:31.220Z,13.03
2019-05-17T08:05:00.767Z,9.95
2019-05-17T08:07:30.329Z,10.65
2019-05-17T08:10:00.249Z,11.33
2019-05-17T08:12:30.413Z,9.88
2019-05-17T08:15:00.306Z,7.15
2019-05-17T08:17:30.504Z,9.50
2019-05-17T08:20:00.629Z,9.40
2019-05-17T08:22:31.491Z,10.38
2019-05-17T08:25:00.888Z,9.40
2019-05-17T08:27:30.210Z,8.25
2019-05-17T08:29:59.917Z,8.98
2019-05-17T08:32:31.727Z,8.18
2019-05-17T08:35:01.235Z,7.60
2019-05-17T08:37:30.565Z,7.67
2019-05-17T08:40:00.227Z,5.40
2019-05-17T08:42:30.071Z,5.42
2019-05-17T08:45:00.706Z,6.33
2019-05-17T08:47:30.333Z,6.10
2019-05-17T08:50:00.471Z,5.72
2019-05-17T08:52:30.092Z,6.03
2019-05-17T08:55:00.378Z,6.03
2019-05-17T08:57:30.422Z,6.05
2019-05-17T09:00:00.921Z,5.67
2019-05-17T09:02:32.461Z,6.37
2019-05-17T09:05:01.878Z,6.05
2019-05-17T09:07:31.271Z,6.90
2019-05-17T09:10:02.138Z,7.60
2019-05-17T09:12:32.545Z,5.80
2019-05-17T09:15:01.968Z,5.80
2019-05-17T09:17:31.331Z,5.70
2019-05-17T09:20:00.935Z,6.00
2019-05-17T09:22:30.641Z,6.58
2019-05-17T09:25:00.230Z,6.65
2019-05-17T09:27:30.134Z,6.00
2019-05-17T09:30:00.041Z,5.62
2019-05-17T09:32:29.795Z,4.97
2019-05-17T09:35:00.369Z,5.20
2019-05-17T09:37:30.502Z,6.03
2019-05-17T09:40:00.096Z,6.62
2019-05-17T09:42:30.074Z,5.95
2019-05-17T09:45:00.623Z,6.10
2019-05-17T09:47:30.250Z,5.85
2019-05-17T09:50:00.774Z,5.67
2019-05-17T09:52:30.133Z,5.80
2019-05-17T09:55:00.433Z,5.12
2019-05-17T09:57:31.559Z,5.20
2019-05-17T10:00:00.867Z,5.40
2019-05-17T10:02:30.295Z,5.05
2019-05-17T10:04:59.927Z,5.62
2019-05-17T10:07:29.966Z,5.70
2019-05-17T10:09:59.851Z,5.05
2019-05-17T10:12:29.343Z,4.70
2019-05-17T10:15:00.473Z,5.67
2019-05-17T10:17:29.719Z,4.97
2019-05-17T10:19:59.927Z,5.08
2019-05-17T10:22:30.361Z,5.10
2019-05-17T10:25:00.994Z,6.40
2019-05-17T10:27:30.386Z,5.92
2019-05-17T10:29:59.923Z,7.22
2019-05-17T10:32:30.995Z,6.37
2019-05-17T10:35:00.603Z,6.20
2019-05-17T10:37:31.330Z,6.53
2019-05-17T10:40:00.763Z,7.05
2019-05-17T10:42:30.580Z,6.97
2019-05-17T10:45:00.213Z,6.65
2019-05-17T10:47:30.107Z,6.50
2019-05-17T10:49:59.678Z,7.35
2019-05-17T10:52:30.013Z,6.67
2019-05-17T10:54:59.826Z,7.42
2019-05-17T10:57:30.286Z,7.22
2019-05-17T11:00:00.957Z,7.05
2019-05-17T11:02:30.760Z,8.70
2019-05-17T11:05:00.770Z,12.80
2019-05-17T11:07:30.439Z,15.40
2019-05-17T11:10:00.545Z,14.85
2019-05-17T11:12:30.244Z,15.13
2019-05-17T11:15:10.533Z,17.82
2019-05-17T11:17:31.924Z,19.75
2019-05-17T11:20:02.690Z,19.40
2019-05-17T11:22:32.105Z,16.15
2019-05-17T11:25:01.524Z,12.35
2019-05-17T11:27:30.952Z,10.63
2019-05-17T11:30:00.280Z,11.63
2019-05-17T11:32:30.840Z,11.40
2019-05-17T11:35:00.281Z,11.22
2019-05-17T11:37:29.687Z,11.53
2019-05-17T11:39:59.053Z,11.68
2019-05-17T11:42:28.451Z,12.78
2019-05-17T11:44:57.828Z,13.13
2019-05-17T11:47:27.264Z,14.23
2019-05-17T11:49:56.694Z,12.88
2019-05-17T11:52:26.132Z,14.73
2019-05-17T11:54:55.487Z,14.05
2019-05-17T11:57:24.855Z,14.90
2019-05-17T11:59:54.295Z,15.68
2019-05-17T12:02:23.631Z,15.48
2019-05-17T12:04:52.959Z,14.78
2019-05-17T12:07:22.297Z,14.68
2019-05-17T12:09:51.626Z,13.53
2019-05-17T12:12:20.994Z,14.53
2019-05-17T12:14:50.326Z,12.75
2019-05-17T12:17:19.694Z,12.00
2019-05-17T12:19:49.102Z,10.98
2019-05-17T12:22:18.444Z,11.30
2019-05-17T12:24:47.801Z,12.35
2019-05-17T12:27:17.206Z,12.65
2019-05-17T12:29:46.542Z,12.45
2019-05-17T12:32:17.081Z,14.90
2019-05-17T12:34:46.761Z,15.08
2019-05-17T12:37:16.200Z,15.90
2019-05-17T12:39:45.635Z,17.40
2019-05-17T12:42:15.084Z,17.05
2019-05-17T12:44:44.423Z,17.87
2019-05-17T12:47:13.824Z,16.82
2019-05-17T12:49:43.169Z,17.87
2019-05-17T12:52:12.566Z,17.65
2019-05-17T12:54:41.965Z,17.10
2019-05-17T12:57:11.329Z,19.60
2019-05-17T12:59:40.734Z,16.50
2019-05-17T13:02:12.202Z,17.00
2019-05-17T13:04:41.144Z,16.75
2019-05-17T13:07:10.499Z,16.20
2019-05-17T13:09:39.869Z,17.50
2019-05-17T13:12:09.262Z,18.32
2019-05-17T13:14:38.648Z,17.07
2019-05-17T13:17:07.980Z,15.43
2019-05-17T13:19:37.336Z,13.95
2019-05-17T13:22:06.752Z,13.25
2019-05-17T13:24:36.074Z,13.03
2019-05-17T13:27:05.449Z,12.82
2019-05-17T13:29:35.014Z,11.00
2019-05-17T13:32:04.358Z,10.23
2019-05-17T13:34:33.720Z,10.23
2019-05-17T13:37:03.199Z,11.83
2019-05-17T13:39:32.523Z,13.48
2019-05-17T13:42:01.912Z,14.13
2019-05-17T13:44:31.315Z,12.37
2019-05-17T13:47:00.672Z,12.45
2019-05-17T13:49:30.046Z,12.98
2019-05-17T13:51:59.467Z,13.05
2019-05-17T13:54:28.829Z,12.33
2019-05-17T13:56:58.258Z,11.57
2019-05-17T13:59:27.663Z,10.78
2019-05-17T14:01:57.001Z,12.68
2019-05-17T14:04:26.332Z,12.78
2019-05-17T14:06:55.688Z,12.10
2019-05-17T14:09:25.140Z,12.70
2019-05-17T14:11:54.650Z,12.95
2019-05-17T14:14:23.988Z,12.65
2019-05-17T14:16:53.327Z,12.75
2019-05-17T14:19:22.674Z,11.75
2019-05-17T14:21:52.090Z,12.10
2019-05-17T14:24:21.542Z,11.63
2019-05-17T14:26:50.861Z,11.05
2019-05-17T14:29:20.240Z,10.58
2019-05-17T14:31:49.639Z,10.20
2019-05-17T14:34:19.004Z,9.85
2019-05-17T14:36:48.406Z,7.15
2019-05-17T14:39:17.764Z,7.78
2019-05-17T14:41:47.199Z,7.50
2019-05-17T14:44:16.539Z,10.50
2019-05-17T14:46:45.956Z,5.72
2019-05-17T14:49:15.386Z,10.30
2019-05-17T14:51:44.818Z,7.12
2019-05-17T14:54:14.268Z,6.78
2019-05-17T14:56:56.112Z,10.32
2019-05-17T14:59:25.479Z,11.08
2019-05-17T15:01:54.862Z,10.90
2019-05-17T15:04:24.281Z,10.98
2019-05-17T15:06:53.672Z,10.93
2019-05-17T15:09:23.086Z,11.20
2019-05-17T15:11:52.520Z,11.50
2019-05-17T15:14:21.927Z,10.68
2019-05-17T15:16:51.261Z,9.15
2019-05-17T15:19:20.594Z,10.63
2019-05-17T15:21:49.960Z,9.88
2019-05-17T15:24:38.699Z,8.38
2019-05-17T15:27:08.105Z,11.12
2019-05-17T15:29:37.498Z,11.25
2019-05-17T15:32:06.827Z,10.32
2019-05-17T15:34:36.200Z,7.83
2019-05-17T15:37:05.697Z,11.78
2019-05-17T15:39:35.075Z,10.00
2019-05-17T15:42:04.532Z,15.58
2019-05-17T15:44:33.932Z,14.53
2019-05-17T15:47:03.340Z,6.40
2019-05-17T15:49:32.803Z,8.78
2019-05-17T15:52:02.166Z,10.63
2019-05-17T15:54:31.595Z,10.13
2019-05-17T15:57:00.922Z,10.45
2019-05-17T15:59:30.281Z,10.32
2019-05-17T16:01:59.721Z,10.50
2019-05-17T16:04:29.130Z,9.50
2019-05-17T16:06:58.556Z,10.32
2019-05-17T16:09:27.970Z,10.90
2019-05-17T16:11:57.310Z,10.45
2019-05-17T16:14:26.672Z,9.93
2019-05-17T16:16:56.067Z,9.80
2019-05-17T16:19:25.436Z,10.43
2019-05-17T16:21:54.834Z,10.90
2019-05-17T16:24:24.364Z,10.58
2019-05-17T16:26:53.762Z,6.05
2019-05-17T16:29:23.159Z,9.53
2019-05-17T16:31:52.527Z,10.82
2019-05-17T16:34:21.884Z,11.28
2019-05-17T16:36:51.272Z,8.88
2019-05-17T16:39:20.697Z,10.25
2019-05-17T16:41:50.144Z,10.08
2019-05-17T16:44:19.505Z,10.88
2019-05-17T16:46:48.868Z,8.53
2019-05-17T16:49:18.275Z,8.08
2019-05-17T16:51:47.594Z,7.42
2019-05-17T16:54:16.931Z,3.65
2019-05-17T16:56:46.251Z,4.65
2019-05-17T16:59:15.607Z,5.90
2019-05-17T17:01:44.955Z,6.55
2019-05-17T17:04:14.284Z,5.80
2019-05-17T17:06:43.602Z,4.97
2019-05-17T17:09:12.955Z,5.95
2019-05-17T17:11:42.312Z,4.05
2019-05-17T17:14:11.634Z,3.98
2019-05-17T17:16:41.000Z,5.20
2019-05-17T17:19:10.419Z,5.00
2019-05-17T17:21:39.821Z,5.65
2019-05-17T17:24:09.171Z,3.98
2019-05-17T17:26:38.607Z,5.33
2019-05-17T17:29:08.001Z,5.95
2019-05-17T17:31:37.338Z,5.97
2019-05-17T17:34:06.713Z,5.40
2019-05-17T17:36:36.149Z,5.60
2019-05-17T17:39:06.515Z,4.72
2019-05-17T17:41:35.843Z,5.87
2019-05-17T17:44:05.380Z,5.87
2019-05-17T17:46:34.793Z,5.75
2019-05-17T17:49:04.191Z,5.35
2019-05-17T17:51:33.600Z,6.05
2019-05-17T17:54:02.964Z,5.45
2019-05-17T17:56:32.325Z,5.47
2019-05-17T17:59:01.782Z,5.85
2019-05-17T18:01:31.168Z,5.53
2019-05-17T18:04:01.573Z,5.67
2019-05-17T18:06:30.995Z,5.40
2019-05-17T18:09:00.436Z,5.97
2019-05-17T18:11:31.310Z,5.78
2019-05-17T18:14:12.487Z,5.87
2019-05-17T18:16:31.691Z,5.10
2019-05-17T18:19:01.124Z,5.30
2019-05-17T18:21:30.656Z,5.47
2019-05-17T18:24:00.046Z,5.95
2019-05-17T18:26:29.399Z,6.25
2019-05-17T18:28:58.836Z,6.30
2019-05-17T18:31:28.268Z,6.05
2019-05-17T18:33:57.710Z,6.25
2019-05-17T18:36:27.504Z,7.00
2019-05-17T18:38:57.277Z,7.25
2019-05-17T18:41:26.700Z,6.78
2019-05-17T18:43:56.026Z,6.90
2019-05-17T18:46:25.397Z,6.40
2019-05-17T18:48:54.796Z,6.20
2019-05-17T18:51:24.160Z,5.55
2019-05-17T18:53:54.398Z,7.15
2019-05-17T18:56:23.727Z,6.22
2019-05-17T18:58:53.485Z,6.17
2019-05-17T19:01:22.916Z,6.00
2019-05-17T19:03:52.344Z,6.20
2019-05-17T19:06:21.771Z,6.40
2019-05-17T19:08:51.182Z,5.95
2019-05-17T19:11:21.575Z,6.65
2019-05-17T19:13:50.897Z,5.85
2019-05-17T19:16:20.223Z,6.78
2019-05-17T19:18:49.632Z,7.30
2019-05-17T19:21:19.027Z,7.65
2019-05-17T19:23:49.449Z,8.10
2019-05-17T19:26:18.803Z,8.95
2019-05-17T19:28:48.120Z,9.80
2019-05-17T19:31:17.500Z,10.78
2019-05-17T19:33:46.859Z,11.28
2019-05-17T19:36:16.292Z,10.90
2019-05-17T19:38:45.707Z,10.18
2019-05-17T19:41:16.144Z,10.05
2019-05-17T19:43:45.536Z,9.75
2019-05-17T19:46:15.860Z,10.30
2019-05-17T19:48:45.246Z,9.95
2019-05-17T19:51:14.582Z,9.55
2019-05-17T19:53:43.919Z,9.58
2019-05-17T19:56:13.257Z,9.23
2019-05-17T19:58:43.588Z,9.15
2019-05-17T20:01:12.987Z,8.30
2019-05-17T20:03:42.496Z,9.03
2019-05-17T20:06:11.937Z,8.93
2019-05-17T20:08:41.331Z,8.45
2019-05-17T20:11:10.669Z,8.40
2019-05-17T20:13:40.100Z,8.65
2019-05-17T20:16:09.496Z,8.73
2019-05-17T20:18:38.826Z,9.23
2019-05-17T20:21:08.169Z,8.83
2019-05-17T20:23:37.607Z,8.30
2019-05-17T20:26:07.007Z,9.03
2019-05-17T20:28:36.328Z,8.90
2019-05-17T20:31:05.698Z,8.65
2019-05-17T20:33:35.136Z,8.93
2019-05-17T20:36:04.567Z,9.25
2019-05-17T20:38:33.993Z,8.53
2019-05-17T20:41:03.738Z,8.50
2019-05-17T20:43:33.160Z,8.88
2019-05-17T20:46:02.617Z,8.20
2019-05-17T20:48:31.990Z,9.15
2019-05-17T20:51:01.362Z,8.78
2019-05-17T20:53:31.726Z,8.80
2019-05-17T20:56:01.086Z,8.48
2019-05-17T20:58:30.515Z,8.80
2019-05-17T21:00:59.855Z,9.08
2019-05-17T21:03:29.231Z,9.25
2019-05-17T21:05:58.566Z,8.18
2019-05-17T21:08:28.000Z,8.65
2019-05-17T21:10:57.364Z,8.98
2019-05-17T21:13:26.699Z,8.88
2019-05-17T21:15:56.072Z,9.75
2019-05-17T21:18:25.515Z,9.25
2019-05-17T21:20:54.847Z,9.63
2019-05-17T21:23:24.228Z,10.65
2019-05-17T21:25:53.588Z,10.28
2019-05-17T21:28:22.978Z,9.20
2019-05-17T21:30:52.451Z,9.03
2019-05-17T21:33:21.879Z,9.10
2019-05-17T21:35:51.198Z,9.65
2019-05-17T21:38:20.539Z,9.60
2019-05-17T21:40:49.905Z,9.45
2019-05-17T21:43:19.356Z,10.10
2019-05-17T21:46:02.788Z,9.65
2019-05-17T21:48:19.742Z,9.95
2019-05-17T21:50:49.125Z,9.93
2019-05-17T21:53:18.552Z,10.08
2019-05-17T21:55:47.951Z,9.80
2019-05-17T21:58:20.363Z,10.32
2019-05-17T22:01:03.652Z,9.93
2019-05-17T22:03:33.262Z,9.45
2019-05-17T22:06:02.687Z,10.28
2019-05-17T22:08:32.129Z,10.10
2019-05-17T22:11:01.554Z,10.48
2019-05-17T22:13:30.991Z,10.00
2019-05-17T22:16:00.310Z,9.65
2019-05-17T22:18:31.321Z,10.03
2019-05-17T22:21:00.677Z,10.40
2019-05-17T22:23:30.011Z,10.18
2019-05-17T22:25:59.335Z,9.48
2019-05-17T22:28:28.705Z,9.65
2019-05-17T22:30:58.014Z,9.70
2019-05-17T22:33:27.379Z,9.30
2019-05-17T22:35:56.787Z,9.80
2019-05-17T22:38:26.115Z,9.23
2019-05-17T22:40:55.488Z,8.60
2019-05-17T22:43:24.912Z,9.53
2019-05-17T22:45:54.359Z,9.45
2019-05-17T22:48:23.763Z,10.20
2019-05-17T22:50:54.207Z,10.03
2019-05-17T22:53:23.642Z,9.38
2019-05-17T22:55:53.227Z,9.08
2019-05-17T22:58:22.579Z,9.98
2019-05-17T23:00:51.946Z,9.48
2019-05-17T23:03:21.362Z,9.85
2019-05-17T23:05:50.687Z,9.50
2019-05-17T23:08:20.023Z,10.03
2019-05-17T23:10:49.446Z,10.55
2019-05-17T23:13:18.778Z,10.50
2019-05-17T23:16:01.112Z,10.98
2019-05-17T23:18:34.359Z,11.03
2019-05-17T23:21:04.050Z,10.75
2019-05-17T23:23:33.486Z,10.53
2019-05-17T23:26:02.921Z,10.93
2019-05-17T23:28:32.336Z,10.58
2019-05-17T23:31:01.771Z,10.85
2019-05-17T23:33:31.207Z,10.10
2019-05-17T23:36:00.576Z,10.80
2019-05-17T23:38:30.016Z,10.72
2019-05-17T23:40:59.339Z,11.93
2019-05-17T23:43:28.900Z,11.88
2019-05-17T23:45:58.309Z,10.90
2019-05-17T23:48:27.669Z,11.80
2019-05-17T23:50:57.084Z,11.38
2019-05-17T23:53:26.417Z,11.68
2019-05-17T23:55:55.789Z,11.05
2019-05-17T23:58:25.126Z,11.85
